地図

経路データ

SID SEASON NUMBER BASIN SUBBASIN NAME ISO_TIME NATURE LAT LON WMO_WIND WMO_PRES WMO_AGENCY TRACK_TYPE DIST2LAND LANDFALL IFLAG USA_AGENCY USA_ATCF_ID USA_LAT USA_LON USA_RECORD USA_STATUS USA_WIND USA_PRES USA_SSHS USA_R34_NE USA_R34_SE USA_R34_SW USA_R34_NW USA_R50_NE USA_R50_SE USA_R50_SW USA_R50_NW USA_R64_NE USA_R64_SE USA_R64_SW USA_R64_NW USA_POCI USA_ROCI USA_RMW USA_EYE TOKYO_LAT TOKYO_LON TOKYO_GRADE TOKYO_WIND TOKYO_PRES TOKYO_R50_DIR TOKYO_R50_LONG TOKYO_R50_SHORT TOKYO_R30_DIR TOKYO_R30_LONG TOKYO_R30_SHORT TOKYO_LAND CMA_LAT CMA_LON CMA_CAT CMA_WIND CMA_PRES HKO_LAT HKO_LON HKO_CAT HKO_WIND HKO_PRES NEWDELHI_LAT NEWDELHI_LON NEWDELHI_GRADE NEWDELHI_WIND NEWDELHI_PRES NEWDELHI_CI NEWDELHI_DP NEWDELHI_POCI REUNION_LAT REUNION_LON REUNION_TYPE REUNION_WIND REUNION_PRES REUNION_TNUM REUNION_CI REUNION_RMW REUNION_R34_NE REUNION_R34_SE REUNION_R34_SW REUNION_R34_NW REUNION_R50_NE REUNION_R50_SE REUNION_R50_SW REUNION_R50_NW REUNION_R64_NE REUNION_R64_SE REUNION_R64_SW REUNION_R64_NW BOM_LAT BOM_LON BOM_TYPE BOM_WIND BOM_PRES BOM_TNUM BOM_CI BOM_RMW BOM_R34_NE BOM_R34_SE BOM_R34_SW BOM_R34_NW BOM_R50_NE BOM_R50_SE BOM_R50_SW BOM_R50_NW BOM_R64_NE BOM_R64_SE BOM_R64_SW BOM_R64_NW BOM_ROCI BOM_POCI BOM_EYE BOM_POS_METHOD BOM_PRES_METHOD NADI_LAT NADI_LON NADI_CAT NADI_WIND NADI_PRES WELLINGTON_LAT WELLINGTON_LON WELLINGTON_WIND WELLINGTON_PRES DS824_LAT DS824_LON DS824_STAGE DS824_WIND DS824_PRES TD9636_LAT TD9636_LON TD9636_STAGE TD9636_WIND TD9636_PRES TD9635_LAT TD9635_LON TD9635_WIND TD9635_PRES TD9635_ROCI NEUMANN_LAT NEUMANN_LON NEUMANN_CLASS NEUMANN_WIND NEUMANN_PRES MLC_LAT MLC_LON MLC_CLASS MLC_WIND MLC_PRES USA_GUST BOM_GUST BOM_GUST_PER REUNION_GUST REUNION_GUST_PER USA_SEAHGT USA_SEARAD_NE USA_SEARAD_SE USA_SEARAD_SW USA_SEARAD_NW STORM_SPEED STORM_DIR
1961147N15095 1961 40 NI BB NOT_NAMED 1961-05-26 18:00:00 TS 14.5000 95.4000 main 134 123 O________O____ jtwc_io IO051961 14.5000 95.4000 -1 14.5000 95.4000 TC 3 10
1961147N15095 1961 40 NI BB NOT_NAMED 1961-05-26 21:00:00 TS 14.6349 95.4099 main 123 100 P________P____ IO051961 14.6349 95.4099 -1 14.6349 95.4099 TC 3 343
1961147N15095 1961 40 NI BB NOT_NAMED 1961-05-27 00:00:00 TS 14.8000 95.3000 main 100 78 O________O____ jtwc_io IO051961 14.8000 95.3000 -1 14.8000 95.3000 TC 25 6 314
1961147N15095 1961 40 NI BB NOT_NAMED 1961-05-27 03:00:00 TS 15.0179 94.9956 main 78 56 P________PO___ IO051961 15.0201 94.9950 -1 15.0201 94.9950 TC 25 15.0000 95.0000 1 8 307
1961147N15095 1961 40 NI BB NOT_NAMED 1961-05-27 06:00:00 TS 15.3010 94.6044 main 56 24 O________OP___ jtwc_io IO051961 15.3000 94.6000 -1 15.3000 94.6000 TC 25 15.3052 94.6221 1 9 310
1961147N15095 1961 40 NI BB NOT_NAMED 1961-05-27 09:00:00 TS 15.6276 94.2486 main 30 24 P________PP___ IO051961 15.6274 94.2499 -1 15.6274 94.2499 TC 25 15.6280 94.2449 1 10 315
1961147N15095 1961 40 NI BB NOT_NAMED 1961-05-27 12:00:00 TS 15.9956 93.8901 main 32 32 O________OP___ jtwc_io IO051961 16.0000 93.9000 -1 16.0000 93.9000 TC 25 15.9868 93.8704 1 10 318
1961147N15095 1961 40 NI BB NOT_NAMED 1961-05-27 15:00:00 TS 16.3850 93.5332 main 85 85 P________PO___ IO051961 16.3774 93.5498 -1 16.3774 93.5498 TC 25 16.4000 93.5000 1 11 321
1961147N15095 1961 40 NI BB NOT_NAMED 1961-05-27 18:00:00 TS 16.8247 93.1790 main 121 121 O________OP___ jtwc_io IO051961 16.8000 93.2000 -1 16.8000 93.2000 TC 25 16.8740 93.1369 1 12 324
1961147N15095 1961 40 NI BB NOT_NAMED 1961-05-27 21:00:00 TS 17.3325 92.8204 main 175 175 P________PP___ IO051961 17.3150 92.8352 -1 17.3150 92.8352 TC 30 17.3675 92.7910 1 12 326
1961147N15095 1961 40 NI BB NOT_NAMED 1961-05-28 00:00:00 TS 17.8091 92.4915 main 184 176 O________OP___ jtwc_io IO051961 17.8000 92.5000 -1 17.8000 92.5000 TC 35 17.8272 92.4745 1 10 326
1961147N15095 1961 40 NI BB NOT_NAMED 1961-05-28 03:00:00 TS 18.1733 92.2182 main 181 176 P________PO___ IO051961 18.1599 92.2273 -1 18.1599 92.2273 TC 35 18.2000 92.2000 2 8 321
1961147N15095 1961 40 NI BB NOT_NAMED 1961-05-28 06:00:00 TS 18.4006 91.9882 main 191 191 O________OP___ jtwc_io IO051961 18.4000 92.0000 -1 18.4000 92.0000 TC 35 18.4019 91.9647 2 5 310
1961147N15095 1961 40 NI BB NOT_NAMED 1961-05-28 09:00:00 TS 18.5207 91.7762 main 207 207 P________PP___ IO051961 18.5225 91.7774 -1 18.5225 91.7774 TC 35 18.5172 91.7739 2 4 299
1961147N15095 1961 40 NI BB NOT_NAMED 1961-05-28 12:00:00 TS 18.5996 91.6071 main 216 214 O________OP___ jtwc_io IO051961 18.6000 91.6000 -1 18.6000 91.6000 TC 35 18.5989 91.6212 2 3 306
1961147N15095 1961 40 NI BB NOT_NAMED 1961-05-28 15:00:00 TS 18.7233 91.4850 main 214 206 P________PO___ IO051961 18.7350 91.4775 -1 18.7350 91.4775 TC 35 18.7000 91.5000 3 4 325
1961147N15095 1961 40 NI BB NOT_NAMED 1961-05-28 18:00:00 TS 18.8920 91.3960 main 206 198 O________OP___ jtwc_io IO051961 18.9000 91.4000 -1 18.9000 91.4000 TC 35 18.8759 91.3881 3 4 337
1961147N15095 1961 40 NI BB NOT_NAMED 1961-05-28 21:00:00 TS 19.0791 91.3300 main 198 184 P________PP___ IO051961 19.0775 91.3425 -1 19.0775 91.3425 TC 50 19.0824 91.3049 3 4 346
1961147N15095 1961 40 NI BB NOT_NAMED 1961-05-29 00:00:00 TS 19.3076 91.2815 main 184 171 O________OP___ jtwc_io IO051961 19.3000 91.3000 -1 19.3000 91.3000 TC 65 19.3228 91.2443 3 5 350
1961147N15095 1961 40 NI BB NOT_NAMED 1961-05-29 03:00:00 TS 19.5800 91.2333 main 175 153 P________PO___ IO051961 19.5700 91.2500 -1 19.5700 91.2500 TC 65 19.6000 91.2000 4 6 351
1961147N15095 1961 40 NI BB NOT_NAMED 1961-05-29 06:00:00 TS 19.9060 91.1788 main 153 141 O________OP___ jtwc_io IO051961 19.9000 91.2000 -1 19.9000 91.2000 TC 65 19.9181 91.1365 4 7 352
1961147N15095 1961 40 NI BB NOT_NAMED 1961-05-29 09:00:00 TS 20.2900 91.1252 main 141 117 P________PP___ IO051961 20.3000 91.1426 -1 20.3000 91.1426 TC 65 20.2699 91.0905 4 8 354
1961147N15095 1961 40 NI BB NOT_NAMED 1961-05-29 12:00:00 TS 20.6789 91.0914 main 117 99 O________OP___ jtwc_io IO051961 20.7000 91.1000 -1 20.7000 91.1000 TC 65 20.6368 91.0741 4 7 356
1961147N15095 1961 40 NI BB NOT_NAMED 1961-05-29 15:00:00 TS 21.0050 91.0801 main 99 85 P________PO___ IO051961 21.0075 91.0701 -1 21.0075 91.0701 TC 50 21.0000 91.1000 4 6 0
1961147N15095 1961 40 NI BB NOT_NAMED 1961-05-29 18:00:00 TS 21.3011 91.1061 main 85 72 O________OP___ jtwc_io IO051961 21.3000 91.1000 -1 21.3000 91.1000 TC 35 21.3032 91.1182 4 6 11
1961147N15095 1961 40 NI BB NOT_NAMED 1961-05-29 21:00:00 TS 21.6296 91.2041 main 73 46 P________PP___ IO051961 21.6425 91.2125 -1 21.6425 91.2125 TC 30 21.6039 91.1874 4 7 21
1961147N15095 1961 40 NI BB NOT_NAMED 1961-05-30 00:00:00 TS 21.9759 91.3792 main 46 20 O________OP___ jtwc_io IO051961 22.0000 91.4000 -1 22.0000 91.4000 TC 25 21.9278 91.3377 4 8 28
1961147N15095 1961 40 NI BB NOT_NAMED 1961-05-30 03:00:00 TS 22.3182 91.5937 main 20 0 P________PO___ IO051961 22.3272 91.5906 -1 22.3272 91.5906 TC 25 22.3000 91.6000 1 9 35
1961147N15095 1961 40 NI BB NOT_NAMED 1961-05-30 06:00:00 TS 22.7153 91.9379 main 0 0 O________OP___ jtwc_io IO051961 22.7000 91.9000 -1 22.7000 91.9000 TC 25 22.7382 91.9947 1 12 42
1961147N15095 1961 40 NI BB NOT_NAMED 1961-05-30 09:00:00 TS 23.1963 92.4389 main 0 0 P________PP___ IO051961 23.1707 92.3936 -1 23.1707 92.3936 TC 25 23.2304 92.4991 1 14 45
1961147N15095 1961 40 NI BB NOT_NAMED 1961-05-30 12:00:00 TS 23.7287 93.0396 main 0 0 O________OP___ jtwc_io IO051961 23.7000 93.0000 -1 23.7000 93.0000 TC 25 23.7573 93.0792 1 16 46
1961147N15095 1961 40 NI BB NOT_NAMED 1961-05-30 15:00:00 NR 24.3000 93.7000 main 0 __________O___ IO051961 -1 TC 24.3000 93.7000 1 17 46

IBTrACS Databaseについて

本データベースは、米国NOAAが公開する1842年以降の世界の熱帯低気圧のベストトラックデータアーカイブInternational Best Track Archive for Climate Stewardship (IBTrACS)を、ウェブで閲覧しやすい形式に変換したものです。

最終更新日:2021-10-08